Time;durP1;ratioP1;P1;durP2;ratioP2;P2;SDS_P1;SDS_P2;PMS_P1;PMS_P2;Temp;Humidity;BMP_temperature;BMP_pressure;BME280_temperature;BME280_humidity;BME280_pressure;Samples;Min_cycle;Max_cycle;Signal;HPM_P1;HPM_P2
2021/06/03 00:02:12;;;;;;;7.53;3.42;;;;;;;14.28;51.93;99765.29;1828972;77;21442;-72
2021/06/03 00:04:40;;;;;;;5.58;3.52;;;;;;;14.21;52.05;99768.47;1831168;77;21547;-72
2021/06/03 00:07:11;;;;;;;7.97;3.77;;;;;;;14.00;52.14;99726.42;1828190;77;20957;-72
2021/06/03 00:09:38;;;;;;;7.53;3.80;;;;;;;14.13;52.23;99764.30;1828829;77;20984;-72
2021/06/03 00:12:08;;;;;;;5.47;3.47;;;;;;;14.12;52.27;99767.93;1827476;77;21701;-73
2021/06/03 00:14:35;;;;;;;7.60;3.65;;;;;;;14.09;52.26;99771.70;1832280;77;21511;-73
2021/06/03 00:17:05;;;;;;;8.20;3.85;;;;;;;14.08;52.27;99767.84;1827493;77;21499;-73
2021/06/03 00:19:33;;;;;;;10.63;3.80;;;;;;;14.04;52.47;99781.02;1828127;77;22019;-72
2021/06/03 00:22:01;;;;;;;8.65;3.95;;;;;;;13.98;52.53;99770.42;1826012;77;21010;-73
2021/06/03 00:24:31;;;;;;;5.55;3.65;;;;;;;13.96;52.76;99771.53;1826554;77;21023;-72
2021/06/03 00:41:05;;;;;;;8.78;3.87;;;;;;;15.53;49.96;99773.82;1796360;78;23063;-72
2021/06/03 00:43:31;;;;;;;9.55;3.58;;;;;;;15.66;49.35;99764.21;1773697;80;21070;-72
2021/06/03 00:45:58;;;;;;;9.28;3.55;;;;;;;15.59;49.23;99771.58;1777934;80;20991;-72
2021/06/03 00:48:26;;;;;;;5.70;3.15;;;;;;;15.52;49.31;99760.64;1776373;80;21515;-72
2021/06/03 00:50:56;;;;;;;6.35;3.62;;;;;;;15.46;49.17;99769.19;1776955;80;20972;-72
2021/06/03 00:53:24;;;;;;;5.72;3.62;;;;;;;15.40;49.41;99761.27;1735025;82;21043;-72
2021/06/03 00:55:53;;;;;;;5.28;3.65;;;;;;;15.40;49.27;99770.09;1750133;81;21531;-72
2021/06/03 00:58:23;;;;;;;5.12;3.80;;;;;;;15.36;49.29;99786.02;1750366;81;20993;-72
2021/06/03 01:00:51;;;;;;;6.70;3.65;;;;;;;15.34;49.19;99786.63;1753090;81;21032;-72
2021/06/03 01:03:19;;;;;;;6.65;3.60;;;;;;;15.31;49.17;99766.11;1753306;81;21056;-72
2021/06/03 01:05:54;;;;;;;6.70;3.30;;;;;;;15.39;49.20;99776.91;1749880;81;21447;-72
2021/06/03 01:08:25;;;;;;;5.75;3.35;;;;;;;15.41;49.19;99764.30;1752307;81;21051;-72
2021/06/03 01:11:01;;;;;;;6.08;3.55;;;;;;;15.54;48.87;99779.51;1754661;81;21532;-72
2021/06/03 01:14:02;;;;;;;9.53;3.83;;;;;;;15.59;48.45;99769.77;1751881;81;21103;-72
2021/06/03 01:16:29;;;;;;;8.45;3.52;;;;;;;15.52;48.68;99769.47;1752972;81;21016;-72
2021/06/03 01:19:00;;;;;;;7.35;3.40;;;;;;;15.49;48.56;99769.76;1743832;81;21056;-72
2021/06/03 01:21:39;;;;;;;6.85;3.90;;;;;;;15.43;48.99;99773.48;1750779;81;21578;-72
2021/06/03 01:24:29;;;;;;;5.75;3.67;;;;;;;15.42;48.68;99771.78;1753282;81;20988;-72
2021/06/03 01:27:01;;;;;;;6.80;3.72;;;;;;;15.33;48.97;99777.45;1716709;81;21045;-72
2021/06/03 01:29:35;;;;;;;;;;;;;;;15.51;48.75;99770.47;1754396;81;21299;-72
2021/06/03 01:32:03;;;;;;;8.05;3.65;;;;;;;15.67;48.45;99779.23;1707971;80;20151;-72
2021/06/03 01:34:29;;;;;;;7.67;3.75;;;;;;;15.84;47.70;99780.41;1686812;84;21072;-72
2021/06/03 01:37:01;;;;;;;6.95;3.62;;;;;;;15.84;47.70;99780.41;1685549;83;21068;-72
2021/06/03 01:39:27;;;;;;;9.38;3.45;;;;;;;15.79;47.86;99776.42;1687058;83;21031;-72
2021/06/03 01:41:55;;;;;;;6.97;3.70;;;;;;;15.74;47.92;99768.84;1687065;83;20988;-71
2021/06/03 01:44:24;;;;;;;5.03;3.52;;;;;;;15.74;47.94;99762.17;1685280;83;21028;-72
2021/06/03 01:46:52;;;;;;;8.78;3.75;;;;;;;15.86;47.66;99767.75;1709385;82;21040;-72
2021/06/03 01:49:23;;;;;;;8.28;3.47;;;;;;;15.85;47.72;99778.06;1685382;83;21603;-72
2021/06/03 01:51:51;;;;;;;5.45;3.80;;;;;;;15.83;47.66;99760.05;1658413;84;21052;-72
2021/06/03 01:54:19;;;;;;;6.12;3.80;;;;;;;15.80;47.84;99778.95;1716044;83;21123;-72
2021/06/03 01:56:48;;;;;;;7.45;3.80;;;;;;;15.75;47.86;99775.86;1692083;83;21021;-72
2021/06/03 01:59:17;;;;;;;7.12;3.92;;;;;;;15.74;47.92;99770.17;1682899;84;21068;-72
2021/06/03 02:01:44;;;;;;;8.03;3.47;;;;;;;15.82;47.93;99778.36;1686180;84;21523;-72
2021/06/03 02:04:13;;;;;;;7.70;3.67;;;;;;;15.97;47.67;99773.44;1681287;84;21076;-72
2021/06/03 02:06:43;;;;;;;8.40;3.62;;;;;;;16.03;47.41;99777.34;1684512;83;21135;-72
2021/06/03 02:09:11;;;;;;;8.33;3.87;;;;;;;16.01;47.18;99767.30;1684848;84;21097;-72
2021/06/03 02:11:45;;;;;;;5.65;3.30;;;;;;;15.83;47.53;99780.05;1689171;83;21024;-72
2021/06/03 02:14:18;;;;;;;6.67;4.50;;;;;;;15.75;47.91;99783.86;1687339;83;21140;-72
2021/06/03 02:16:57;;;;;;;8.63;3.60;;;;;;;15.80;47.68;99785.61;1684841;85;21076;-72
2021/06/03 02:19:34;;;;;;;13.40;3.90;;;;;;;15.59;48.01;99777.77;1683478;84;21044;-72
2021/06/03 02:22:03;;;;;;;7.65;3.62;;;;;;;15.52;48.24;99787.30;1652748;84;21639;-72
2021/06/03 02:24:32;;;;;;;6.45;3.60;;;;;;;15.47;48.25;99779.70;1685322;84;21076;-72
2021/06/03 02:26:59;;;;;;;6.40;3.52;;;;;;;15.38;48.36;99781.88;1688734;84;21017;-72
2021/06/03 02:29:26;;;;;;;9.03;3.75;;;;;;;15.23;48.64;99778.28;1683020;84;21052;-72
2021/06/03 02:32:06;;;;;;;8.90;4.35;;;;;;;15.08;48.96;99777.83;1682215;84;21084;-72
2021/06/03 02:34:38;;;;;;;6.75;3.70;;;;;;;15.08;49.04;99788.98;1682378;83;22170;-72
2021/06/03 02:37:13;;;;;;;12.35;4.22;;;;;;;14.98;49.29;99796.09;1690916;83;21068;-72
2021/06/03 02:39:41;;;;;;;8.30;4.20;;;;;;;15.11;49.61;99794.52;1683385;83;21080;-72
2021/06/03 02:42:09;;;;;;;6.45;4.70;;;;;;;15.26;49.02;99802.98;1715805;82;21005;-72
2021/06/03 02:44:38;;;;;;;8.98;4.97;;;;;;;15.27;49.01;99797.51;1679778;84;21067;-72
2021/06/03 02:47:05;;;;;;;11.65;5.05;;;;;;;15.19;49.12;99800.00;1663588;84;21099;-72
2021/06/03 02:49:32;;;;;;;7.58;4.15;;;;;;;15.29;49.07;99805.36;1688352;85;21076;-72
2021/06/03 02:52:02;;;;;;;8.48;4.20;;;;;;;15.43;48.62;99794.80;1684662;85;21084;-72
2021/06/03 02:54:31;;;;;;;8.50;3.92;;;;;;;15.45;48.55;99795.01;1681261;84;21071;-72
2021/06/03 02:56:58;;;;;;;6.47;3.70;;;;;;;15.32;48.53;99808.59;1685802;83;21071;-72
2021/06/03 02:59:25;;;;;;;6.83;3.70;;;;;;;15.21;48.89;99795.39;1681840;84;21032;-72
2021/06/03 03:01:52;;;;;;;7.20;3.80;;;;;;;15.07;49.18;99796.11;1684398;84;21037;-72
2021/06/03 03:04:18;;;;;;;7.42;3.65;;;;;;;15.12;49.43;99796.21;1656908;83;22336;-72
2021/06/03 03:06:45;;;;;;;6.90;3.85;;;;;;;15.18;49.25;99792.98;1683232;83;21570;-72
2021/06/03 03:09:12;;;;;;;6.87;3.60;;;;;;;15.23;49.26;99801.44;1684134;84;20993;-71
2021/06/03 03:23:33;;;;;;;7.83;3.42;;;;;;;16.79;46.12;99789.78;1804887;79;22910;-71
2021/06/03 03:26:01;;;;;;;7.53;3.85;;;;;;;16.86;45.82;99798.87;1767403;80;21546;-71
2021/06/03 03:28:28;;;;;;;5.47;3.70;;;;;;;16.74;45.78;99805.41;1769095;80;21004;-72
2021/06/03 03:30:56;;;;;;;5.78;3.60;;;;;;;16.59;46.14;99797.53;1767829;80;21024;-72
2021/06/03 03:33:24;;;;;;;9.93;4.00;;;;;;;16.59;46.08;99797.53;1768839;81;21550;-72
2021/06/03 03:35:51;;;;;;;6.45;3.80;;;;;;;16.70;45.88;99806.66;1745717;81;21638;-72
2021/06/03 03:38:21;;;;;;;8.78;3.62;;;;;;;16.95;45.65;99801.69;1766941;80;21033;-72
2021/06/03 03:40:50;;;;;;;5.85;4.15;;;;;;;17.19;45.22;99809.98;1766172;80;21017;-71
2021/06/03 03:43:17;;;;;;;6.45;3.62;;;;;;;17.36;44.74;99802.16;1724463;83;21447;-72
2021/06/03 03:45:44;;;;;;;6.42;3.95;;;;;;;17.34;44.73;99802.79;1716215;83;21527;-72
2021/06/03 03:48:11;;;;;;;6.22;3.95;;;;;;;17.40;44.59;99800.03;1716740;83;21040;-71
2021/06/03 03:50:39;;;;;;;8.08;3.83;;;;;;;17.43;44.19;99793.89;1697652;84;21062;-72
2021/06/03 03:53:07;;;;;;;8.73;4.00;;;;;;;17.34;44.56;99798.30;1716949;83;21053;-72
2021/06/03 03:55:35;;;;;;;6.80;4.00;;;;;;;17.32;44.47;99798.94;1715148;83;21025;-72
2021/06/03 03:58:03;;;;;;;9.20;4.37;;;;;;;17.28;44.49;99803.42;1718071;82;21538;-73
2021/06/03 04:00:32;;;;;;;5.53;3.65;;;;;;;17.18;44.62;99807.47;1725440;82;21053;-73
2021/06/03 04:03:03;;;;;;;6.45;4.53;;;;;;;17.09;45.13;99803.86;1726215;83;21072;-73
2021/06/03 04:05:30;;;;;;;6.47;3.77;;;;;;;17.14;45.28;99807.44;1726822;83;20984;-73
2021/06/03 04:07:58;;;;;;;7.03;3.45;;;;;;;17.23;45.06;99805.70;1726120;83;21040;-72
2021/06/03 04:10:28;;;;;;;7.17;3.72;;;;;;;17.33;44.73;99799.80;1725504;82;21060;-73
2021/06/03 04:12:54;;;;;;;6.45;3.47;;;;;;;17.48;44.47;99811.66;1716866;82;21103;-72
2021/06/03 04:15:21;;;;;;;6.10;3.42;;;;;;;17.62;44.31;99809.43;1698663;84;21293;-72
2021/06/03 04:17:49;;;;;;;10.85;3.85;;;;;;;17.68;44.07;99810.16;1715394;83;21047;-72
2021/06/03 04:20:20;;;;;;;8.08;3.70;;;;;;;17.65;44.15;99815.32;1687011;84;21034;-73
2021/06/03 04:22:49;;;;;;;8.63;3.90;;;;;;;17.66;44.13;99810.80;1659137;84;21029;-73
2021/06/03 04:25:16;;;;;;;7.35;3.70;;;;;;;17.75;44.17;99811.24;1660473;84;21048;-72
2021/06/03 04:27:43;;;;;;;7.05;3.65;;;;;;;17.99;44.13;99813.80;1663823;83;21044;-72
2021/06/03 04:30:12;;;;;;;10.30;3.87;;;;;;;18.23;43.56;99820.36;1697432;84;20978;-72
2021/06/03 04:32:39;;;;;;;8.70;3.42;;;;;;;18.35;43.12;99821.80;1691659;84;21056;-73
2021/06/03 04:35:07;;;;;;;7.08;4.08;;;;;;;18.53;43.13;99821.74;1690366;84;21021;-73
2021/06/03 04:37:33;;;;;;;7.33;3.87;;;;;;;18.70;42.61;99823.19;1690173;84;21044;-73
2021/06/03 04:40:01;;;;;;;7.25;3.58;;;;;;;18.78;42.28;99824.04;1692096;84;21053;-72
2021/06/03 04:42:27;;;;;;;7.37;3.83;;;;;;;18.78;42.11;99824.04;1690496;84;21076;-71
2021/06/03 04:44:55;;;;;;;5.37;3.37;;;;;;;18.71;42.12;99833.73;1691489;84;21072;-72
2021/06/03 04:47:23;;;;;;;4.90;3.47;;;;;;;18.74;42.29;99825.36;1706259;84;21107;-72
2021/06/03 04:49:49;;;;;;;6.03;3.60;;;;;;;18.96;42.08;99827.18;1702054;84;21052;-72
2021/06/03 04:52:28;;;;;;;6.45;4.00;;;;;;;19.24;41.65;99822.42;1696784;84;21063;-72
2021/06/03 04:54:57;;;;;;;8.75;4.00;;;;;;;19.51;41.60;99818.32;1699406;84;21036;-72
2021/06/03 04:57:24;;;;;;;12.53;5.35;;;;;;;19.79;40.92;99822.37;1689898;84;21036;-72
2021/06/03 04:59:50;;;;;;;5.97;3.40;;;;;;;19.95;41.25;99820.77;1691036;84;21060;-72
2021/06/03 05:02:17;;;;;;;10.28;4.15;;;;;;;20.21;40.23;99818.41;1693290;84;21072;-73
2021/06/03 05:04:45;;;;;;;6.70;3.90;;;;;;;20.35;38.97;99825.77;1692177;84;20988;-73
2021/06/03 05:07:12;;;;;;;9.60;3.70;;;;;;;20.37;39.42;99817.05;1684571;84;21033;-74
2021/06/03 05:09:38;;;;;;;9.00;3.83;;;;;;;20.64;39.27;99813.63;1676119;85;21044;-74
2021/06/03 05:12:07;;;;;;;5.85;3.50;;;;;;;20.87;39.36;99810.22;1699887;84;21101;-74
2021/06/03 05:14:33;;;;;;;8.68;3.50;;;;;;;21.02;37.95;99815.19;1680895;84;21037;-75
2021/06/03 05:17:00;;;;;;;7.22;3.52;;;;;;;20.99;37.83;99814.20;1662325;85;21059;-74
2021/06/03 05:19:30;;;;;;;6.60;3.30;;;;;;;20.86;37.55;99818.80;1683188;85;21628;-74
2021/06/03 05:21:58;;;;;;;4.90;3.77;;;;;;;20.74;38.27;99827.74;1686717;83;22127;-75
2021/06/03 05:24:24;;;;;;;6.72;3.25;;;;;;;20.74;37.89;99822.37;1685621;84;21602;-74
2021/06/03 05:26:54;;;;;;;5.65;3.00;;;;;;;20.69;38.73;99829.22;1668313;86;21561;-74
2021/06/03 05:29:21;;;;;;;7.62;3.37;;;;;;;20.72;38.45;99830.27;1723895;83;21452;-73
2021/06/03 05:31:49;;;;;;;7.60;3.00;;;;;;;20.71;38.49;99827.24;1723021;83;21506;-74
2021/06/03 05:34:16;;;;;;;9.35;3.02;;;;;;;20.75;38.71;99829.39;1717135;83;21518;-73
2021/06/03 05:36:43;;;;;;;9.30;3.30;;;;;;;20.84;38.22;99821.33;1695298;83;21102;-72
2021/06/03 05:39:10;;;;;;;4.53;3.00;;;;;;;20.86;37.87;99827.38;1695396;84;21594;-74
2021/06/03 05:41:37;;;;;;;6.30;3.10;;;;;;;20.79;38.25;99826.72;1695257;84;21099;-73
2021/06/03 05:44:08;;;;;;;5.62;3.37;;;;;;;20.83;38.63;99827.70;1696579;83;21003;-74
2021/06/03 05:46:35;;;;;;;10.60;3.20;;;;;;;20.85;38.16;99835.10;1706531;83;21004;-74
2021/06/03 05:49:04;;;;;;;5.22;3.27;;;;;;;20.81;37.85;99833.75;1717267;83;20979;-74
2021/06/03 05:51:31;;;;;;;7.87;3.25;;;;;;;20.77;38.73;99838.66;1704557;83;21486;-74
2021/06/03 05:53:59;;;;;;;6.53;3.22;;;;;;;20.86;37.97;99839.47;1686637;84;21475;-75
2021/06/03 05:56:26;;;;;;;5.17;3.27;;;;;;;20.89;38.54;99841.80;1725291;83;21126;-74
2021/06/03 05:58:53;;;;;;;5.65;3.37;;;;;;;21.01;37.81;99844.45;1696728;84;21043;-74
2021/06/03 06:01:21;;;;;;;7.37;2.83;;;;;;;21.02;37.56;99840.73;1725459;83;21063;-74
2021/06/03 06:06:24;;;;;;;5.05;2.85;;;;;;;21.04;38.67;99849.99;1669009;84;21067;-75
2021/06/03 06:08:56;;;;;;;5.60;2.98;;;;;;;21.23;38.58;99844.70;1667108;86;21039;-74
2021/06/03 06:11:30;;;;;;;7.22;3.30;;;;;;;21.31;38.09;99839.27;1705406;83;21026;-75
2021/06/03 06:13:57;;;;;;;;;;;;;;;21.37;36.79;99839.92;1727956;83;21015;-74
2021/06/03 06:16:23;;;;;;;7.37;3.30;;;;;;;21.18;37.51;99843.05;1724582;83;20120;-75
2021/06/03 06:18:51;;;;;;;4.53;2.90;;;;;;;20.94;38.13;99843.46;1725074;83;21024;-74
2021/06/03 06:21:21;;;;;;;5.08;3.02;;;;;;;20.82;38.84;99842.15;1703426;83;21110;-74
2021/06/03 06:23:48;;;;;;;6.53;3.42;;;;;;;20.86;38.35;99838.12;1707675;83;21499;-74
2021/06/03 06:26:14;;;;;;;6.92;3.02;;;;;;;20.82;37.85;99844.34;1695309;84;21482;-74
2021/06/03 06:28:41;;;;;;;4.55;2.92;;;;;;;20.74;38.24;99838.49;1668110;86;21503;-73
2021/06/03 06:31:08;;;;;;;7.03;3.22;;;;;;;20.74;38.54;99835.80;1662747;86;21552;-73
2021/06/03 06:33:37;;;;;;;6.08;3.20;;;;;;;20.73;37.90;99840.84;1686545;84;21570;-74
2021/06/03 06:36:04;;;;;;;4.03;2.80;;;;;;;20.66;37.36;99843.02;1668750;84;21063;-74
2021/06/03 06:38:31;;;;;;;7.70;3.30;;;;;;;20.58;37.95;99843.87;1696159;84;21027;-74
2021/06/03 06:40:58;;;;;;;5.10;3.10;;;;;;;20.55;38.38;99845.53;1694739;84;21043;-74
2021/06/03 06:43:24;;;;;;;4.75;3.10;;;;;;;20.54;38.54;99849.25;1705132;83;21003;-73
2021/06/03 06:45:51;;;;;;;7.30;3.20;;;;;;;20.57;38.63;99838.98;1718328;83;20995;-73
2021/06/03 06:48:19;;;;;;;9.65;3.05;;;;;;;20.61;38.28;99847.06;1678958;84;21050;-73
2021/06/03 06:50:47;;;;;;;3.90;2.87;;;;;;;20.61;38.17;99844.86;1696081;84;21022;-73
2021/06/03 06:53:13;;;;;;;7.90;3.10;;;;;;;20.67;38.51;99840.15;1712762;84;21049;-73
2021/06/03 06:55:41;;;;;;;8.00;3.05;;;;;;;20.72;38.59;99838.33;1682857;84;21059;-73
2021/06/03 06:58:08;;;;;;;6.40;2.80;;;;;;;20.73;37.73;99843.53;1699221;84;20998;-74
2021/06/03 07:00:38;;;;;;;5.75;3.00;;;;;;;20.67;37.37;99840.66;1697873;84;21016;-72
2021/06/03 07:03:10;;;;;;;5.80;2.90;;;;;;;20.59;37.51;99841.00;1673764;86;21112;-73
2021/06/03 07:05:35;;;;;;;13.93;3.42;;;;;;;20.55;36.94;99838.81;1675132;84;21044;-74
2021/06/03 07:08:01;;;;;;;6.37;3.00;;;;;;;20.46;37.42;99837.50;1673795;86;21577;-73
2021/06/03 07:10:27;;;;;;;5.30;3.08;;;;;;;20.41;37.73;99841.20;1674022;86;20985;-73
2021/06/03 07:12:55;;;;;;;11.53;3.40;;;;;;;20.42;37.31;99845.58;1673726;86;21135;-73
2021/06/03 07:15:21;;;;;;;6.62;2.92;;;;;;;20.40;37.04;99838.18;1682709;84;21004;-72
2021/06/03 07:17:50;;;;;;;6.83;3.00;;;;;;;20.38;37.74;99847.41;1701943;84;21032;-72
2021/06/03 07:20:19;;;;;;;6.60;2.72;;;;;;;20.35;37.01;99837.02;1702062;84;21583;-73
2021/06/03 07:22:47;;;;;;;4.92;2.87;;;;;;;20.38;36.76;99832.64;1698168;84;21037;-73
2021/06/03 07:25:16;;;;;;;5.83;2.95;;;;;;;20.46;37.23;99836.16;1678089;85;21053;-73
2021/06/03 07:27:42;;;;;;;7.30;3.02;;;;;;;20.51;37.80;99845.06;1657188;86;21612;-73
2021/06/03 07:30:12;;;;;;;3.92;2.85;;;;;;;20.55;36.96;99842.84;1657009;86;21612;-74
2021/06/03 07:32:39;;;;;;;4.47;2.65;;;;;;;20.58;37.22;99839.32;1659393;85;21592;-73
2021/06/03 07:35:09;;;;;;;3.72;2.62;;;;;;;20.73;37.61;99842.67;1682256;85;21477;-73
2021/06/03 07:37:37;;;;;;;4.62;2.55;;;;;;;20.84;36.35;99836.11;1683289;85;21679;-73
2021/06/03 07:40:06;;;;;;;9.18;2.87;;;;;;;20.78;36.42;99828.21;1666841;85;21524;-73
2021/06/03 07:42:32;;;;;;;5.08;2.90;;;;;;;20.76;36.60;99830.25;1678154;85;21049;-72
2021/06/03 07:45:00;;;;;;;5.10;3.00;;;;;;;20.73;36.63;99831.44;1684674;85;21624;-72
2021/06/03 07:47:28;;;;;;;5.00;2.85;;;;;;;20.74;36.67;99823.71;1684312;85;21061;-73
2021/06/03 07:49:54;;;;;;;3.80;2.58;;;;;;;20.78;35.98;99837.12;1675493;85;21037;-72
2021/06/03 07:52:20;;;;;;;5.85;3.70;;;;;;;20.74;35.66;99841.18;1682347;85;21505;-73
2021/06/03 07:54:47;;;;;;;4.15;2.80;;;;;;;20.64;35.65;99839.16;1738579;82;21021;-73
2021/06/03 07:57:13;;;;;;;4.45;3.05;;;;;;;20.58;35.80;99832.61;1737489;82;20988;-73
2021/06/03 07:59:39;;;;;;;6.17;2.80;;;;;;;20.60;36.33;99841.83;1731218;82;20946;-72
2021/06/03 08:02:06;;;;;;;4.92;3.05;;;;;;;20.62;36.32;99841.17;1737775;82;21022;-72
2021/06/03 08:04:32;;;;;;;19.75;4.15;;;;;;;20.60;35.68;99828.39;1739252;82;21057;-72
2021/06/03 08:06:59;;;;;;;5.80;3.08;;;;;;;20.64;36.30;99836.47;1739667;82;21013;-72
2021/06/03 08:09:26;;;;;;;7.00;2.62;;;;;;;20.69;35.97;99830.08;1734046;82;21056;-72
2021/06/03 08:11:54;;;;;;;5.37;2.58;;;;;;;20.69;35.75;99835.94;1710301;82;21151;-73
2021/06/03 08:14:20;;;;;;;5.60;2.77;;;;;;;20.69;36.05;99835.45;1710286;84;21009;-73
2021/06/03 08:16:46;;;;;;;4.53;2.77;;;;;;;20.73;36.39;99835.95;1710343;84;21032;-73
2021/06/03 08:19:16;;;;;;;4.42;2.75;;;;;;;20.73;35.89;99846.70;1710496;82;21108;-73
2021/06/03 08:21:42;;;;;;;6.92;2.80;;;;;;;20.65;35.73;99828.72;1710276;84;21013;-72
2021/06/03 08:24:10;;;;;;;4.72;2.87;;;;;;;20.56;35.12;99835.98;1709797;83;21643;-72
2021/06/03 08:26:36;;;;;;;7.10;2.72;;;;;;;20.37;34.31;99840.36;1710359;84;20990;-72
2021/06/03 08:29:04;;;;;;;5.62;2.80;;;;;;;20.14;34.60;99844.58;1710056;84;21564;-72
2021/06/03 08:31:31;;;;;;;4.42;2.60;;;;;;;19.94;34.73;99844.58;1712375;82;21496;-72
2021/06/03 08:34:01;;;;;;;4.80;2.72;;;;;;;19.73;34.77;99840.50;1710272;84;20989;-72
2021/06/03 08:36:26;;;;;;;5.33;2.50;;;;;;;19.65;34.77;99848.52;1710002;84;21462;-72
2021/06/03 08:38:54;;;;;;;3.47;2.60;;;;;;;19.65;35.15;99847.17;1710467;83;21079;-72
2021/06/03 08:41:20;;;;;;;5.72;3.25;;;;;;;19.77;35.80;99843.19;1715398;82;20997;-71
2021/06/03 08:43:46;;;;;;;4.70;2.70;;;;;;;19.92;35.96;99831.81;1710381;84;21036;-71
2021/06/03 08:46:13;;;;;;;5.67;2.92;;;;;;;20.13;36.60;99840.73;1710292;84;21069;-72
2021/06/03 08:48:41;;;;;;;9.05;3.87;;;;;;;20.37;35.24;99824.24;1710886;82;21524;-72
2021/06/03 08:51:08;;;;;;;6.67;2.60;;;;;;;20.49;35.46;99839.50;1710364;84;21475;-72
2021/06/03 08:53:34;;;;;;;6.97;3.02;;;;;;;20.41;35.05;99843.89;1710346;82;21037;-72
2021/06/03 08:58:47;;;;;;;4.92;2.87;;;;;;;20.16;35.10;99861.03;1691657;82;21612;-72
2021/06/03 09:01:14;;;;;;;6.08;2.62;;;;;;;19.99;34.97;99850.28;1716280;82;20996;-73
2021/06/03 09:03:42;;;;;;;7.95;2.45;;;;;;;19.86;35.38;99848.58;1710042;84;21073;-72
2021/06/03 09:06:10;;;;;;;4.42;2.65;;;;;;;19.81;35.90;99849.06;1710127;83;21509;-73
2021/06/03 09:08:38;;;;;;;5.30;2.90;;;;;;;19.86;36.62;99836.50;1711163;82;21025;-72
2021/06/03 09:11:09;;;;;;;5.42;3.00;;;;;;;20.08;37.05;99847.93;1710337;83;21029;-72
2021/06/03 09:13:40;;;;;;;;;;;;;;;20.27;36.74;99841.90;1713121;84;21029;-72
2021/06/03 09:16:20;;;;;;;6.22;2.60;;;;;;;20.37;35.36;99857.33;1710366;83;20133;-72
2021/06/03 09:18:57;;;;;;;6.10;3.37;;;;;;;20.35;35.38;99849.11;1713997;82;21025;-72
2021/06/03 09:21:26;;;;;;;6.00;2.75;;;;;;;20.26;35.57;99850.44;1710485;84;21369;-72
2021/06/03 09:24:13;;;;;;;6.45;2.60;;;;;;;20.12;35.67;99853.29;1718855;82;21068;-71
2021/06/03 09:27:01;;;;;;;5.28;3.35;;;;;;;19.99;36.16;99854.31;1753445;81;21017;-72
2021/06/03 09:29:33;;;;;;;6.15;3.05;;;;;;;19.89;36.11;99845.06;1746047;81;21555;-71
2021/06/03 09:32:09;;;;;;;5.53;2.87;;;;;;;19.85;35.93;99849.09;1732808;82;20989;-72
2021/06/03 09:34:39;;;;;;;4.03;3.08;;;;;;;19.88;36.77;99851.43;1737070;81;21036;-72
2021/06/03 09:37:10;;;;;;;6.65;2.62;;;;;;;19.98;36.54;99861.50;1736828;81;20974;-72
2021/06/03 09:39:43;;;;;;;7.67;2.80;;;;;;;20.08;36.35;99841.22;1745379;81;21056;-72
2021/06/03 09:42:19;;;;;;;4.15;2.55;;;;;;;20.21;37.15;99838.02;1668312;85;21100;-73
2021/06/03 09:44:49;;;;;;;4.22;2.30;;;;;;;20.42;36.56;99833.97;1725647;82;20981;-72
2021/06/03 09:47:19;;;;;;;14.15;3.10;;;;;;;20.60;35.92;99834.63;1753452;82;21639;-73
2021/06/03 09:49:55;;;;;;;4.03;2.70;;;;;;;20.71;34.32;99838.81;1751493;81;21039;-72
2021/06/03 09:52:27;;;;;;;5.33;2.55;;;;;;;20.72;34.51;99857.97;1753610;82;21056;-72
2021/06/03 09:54:57;;;;;;;11.08;3.20;;;;;;;20.68;34.53;99841.83;1742589;82;21539;-71
2021/06/03 09:57:39;;;;;;;9.45;3.00;;;;;;;20.61;35.18;99842.17;1731331;82;20989;-73
2021/06/03 10:00:16;;;;;;;5.42;2.70;;;;;;;20.67;34.67;99838.80;1724061;83;21005;-72
2021/06/03 10:02:44;;;;;;;5.83;2.47;;;;;;;20.77;34.83;99843.52;1724503;82;21516;-73
2021/06/03 10:05:12;;;;;;;8.45;2.77;;;;;;;20.89;35.12;99839.94;1728585;82;21504;-73
2021/06/03 10:07:38;;;;;;;5.60;2.80;;;;;;;20.99;35.21;99850.50;1735067;82;21004;-73
2021/06/03 10:10:08;;;;;;;6.53;3.15;;;;;;;20.99;34.26;99855.05;1753717;82;21028;-73
2021/06/03 10:12:39;;;;;;;6.70;2.90;;;;;;;20.89;34.58;99852.03;1752391;81;21044;-73
2021/06/03 10:15:18;;;;;;;4.30;2.55;;;;;;;20.89;33.79;99861.95;1733672;82;21496;-72
2021/06/03 10:18:01;;;;;;;4.78;2.75;;;;;;;20.79;33.82;99854.94;1749883;82;21089;-72
2021/06/03 10:20:43;;;;;;;8.78;2.62;;;;;;;20.71;34.81;99853.59;1753661;81;21040;-73
2021/06/03 10:23:15;;;;;;;6.95;2.87;;;;;;;20.72;35.41;99868.72;1751876;82;20985;-71
2021/06/03 10:25:43;;;;;;;19.05;3.58;;;;;;;20.72;34.36;99850.42;1753780;81;21017;-71
2021/06/03 10:28:14;;;;;;;5.03;2.87;;;;;;;20.62;34.58;99854.60;1745691;81;21080;-72
2021/06/03 10:30:44;;;;;;;6.58;2.83;;;;;;;20.58;34.93;99852.75;1741762;82;21012;-72
2021/06/03 10:33:14;;;;;;;4.92;2.72;;;;;;;20.59;35.45;99854.95;1740841;82;21177;-73
2021/06/03 10:35:44;;;;;;;4.70;3.00;;;;;;;20.63;34.85;99858.97;1723700;83;21516;-72
2021/06/03 10:38:11;;;;;;;5.15;2.55;;;;;;;20.61;34.97;99844.86;1723583;83;21008;-72
2021/06/03 10:40:45;;;;;;;6.28;3.12;;;;;;;20.54;35.14;99857.31;1674836;85;20986;-73
2021/06/03 10:43:12;;;;;;;4.90;2.80;;;;;;;20.51;36.54;99845.55;1725569;82;21005;-72
2021/06/03 10:45:40;;;;;;;4.33;3.02;;;;;;;20.60;35.55;99843.17;1723620;83;21027;-74
2021/06/03 10:48:08;;;;;;;4.35;2.60;;;;;;;20.63;35.04;99841.51;1668372;85;21552;-73
2021/06/03 10:50:49;;;;;;;4.90;2.83;;;;;;;20.58;35.43;99847.90;1729749;82;20957;-72
2021/06/03 10:53:21;;;;;;;6.45;3.05;;;;;;;20.58;35.90;99854.61;1741797;82;21032;-70
2021/06/03 10:55:51;;;;;;;5.85;3.00;;;;;;;20.66;36.53;99847.87;1751407;82;21047;-72
2021/06/03 10:58:20;;;;;;;3.47;2.77;;;;;;;20.79;36.44;99845.53;1741405;82;21484;-70
2021/06/03 11:01:04;;;;;;;6.60;2.75;;;;;;;20.85;35.81;99845.85;1736196;82;21000;-71
2021/06/03 11:03:51;;;;;;;;;;;;;;;20.84;35.76;99846.86;1689096;85;21611;-71
2021/06/03 11:06:22;;;;;;;4.12;2.72;;;;;;;20.84;37.01;99849.03;1686618;85;20144;-71
2021/06/03 11:09:01;;;;;;;6.35;3.10;;;;;;;20.94;36.02;99844.29;1723808;83;21091;-72
2021/06/03 11:11:38;;;;;;;5.35;2.67;;;;;;;20.96;35.54;99848.17;1676164;85;21068;-72
2021/06/03 11:14:17;;;;;;;5.17;3.00;;;;;;;20.89;35.61;99841.80;1723399;83;20993;-71
2021/06/03 11:16:55;;;;;;;18.00;3.62;;;;;;;20.86;36.33;99865.01;1723783;83;21536;-71
2021/06/03 11:19:27;;;;;;;5.20;2.90;;;;;;;20.89;35.95;99850.69;1727363;82;20995;-71
2021/06/03 11:21:58;;;;;;;5.58;2.87;;;;;;;20.91;35.98;99852.71;1668844;85;21580;-70
2021/06/03 11:24:37;;;;;;;5.28;2.67;;;;;;;20.88;35.89;99856.25;1727885;82;21014;-70
2021/06/03 11:27:13;;;;;;;4.42;2.77;;;;;;;20.79;35.51;99856.28;1640233;86;21072;-70
2021/06/03 11:29:54;;;;;;;5.80;3.10;;;;;;;20.69;35.74;99856.09;1710267;84;21068;-70
2021/06/03 11:32:28;;;;;;;3.98;2.62;;;;;;;20.66;36.17;99863.16;1735507;82;21569;-72
2021/06/03 11:34:58;;;;;;;4.95;2.80;;;;;;;20.63;36.14;99862.48;1726004;82;20975;-72
2021/06/03 11:37:43;;;;;;;11.63;3.12;;;;;;;20.53;36.25;99856.98;1733173;82;21009;-72
2021/06/03 11:40:16;;;;;;;7.37;3.05;;;;;;;20.52;37.29;99860.15;1711983;82;21003;-72
2021/06/03 11:42:46;;;;;;;5.15;3.00;;;;;;;20.63;37.12;99847.70;1663601;86;21568;-72
2021/06/03 11:45:44;;;;;;;5.90;3.00;;;;;;;20.71;37.67;99845.53;1717470;82;21024;-73
2021/06/03 11:48:21;;;;;;;4.95;2.60;;;;;;;20.82;35.75;99856.45;1644684;86;21018;-72
2021/06/03 11:50:54;;;;;;;9.18;2.58;;;;;;;20.69;36.35;99854.27;1724441;82;21028;-73
2021/06/03 11:53:26;;;;;;;5.60;3.10;;;;;;;20.63;36.37;99858.45;1739973;82;21016;-73
2021/06/03 11:55:56;;;;;;;3.47;2.60;;;;;;;20.58;36.67;99847.90;1738094;82;21513;-73
2021/06/03 11:58:46;;;;;;;5.70;2.52;;;;;;;20.56;35.80;99857.48;1739703;82;21057;-74
2021/06/03 12:01:24;;;;;;;10.58;2.98;;;;;;;20.58;36.23;99857.30;1718897;82;21049;-72
2021/06/03 12:06:43;;;;;;;5.35;2.80;;;;;;;20.73;37.15;99854.77;1734082;80;66660;-73
2021/06/03 12:09:20;;;;;;;3.50;2.72;;;;;;;20.83;37.06;99853.23;1736074;83;21011;-72
2021/06/03 12:11:53;;;;;;;4.37;2.75;;;;;;;20.83;36.64;99847.86;1714079;82;21053;-72
2021/06/03 12:14:25;;;;;;;4.95;2.62;;;;;;;20.89;35.98;99856.59;1704557;84;21060;-72
2021/06/03 12:17:04;;;;;;;6.47;2.55;;;;;;;20.76;35.90;99857.13;1707061;84;21570;-72
2021/06/03 12:19:36;;;;;;;4.47;2.60;;;;;;;20.60;36.36;99841.83;1732023;83;21022;-73
2021/06/03 12:22:06;;;;;;;4.95;2.67;;;;;;;20.51;36.56;99856.30;1754700;81;21091;-72